Amarillo, TX (79119)

9:47 AM CDT on August 31, 2016 (GMT -0500)
Sherman Acres | | Change Station

Elev 3663 ft 35.07 °N, 101.92 °W | Updated 59 seconds ago

Overcast
Overcast
66.2 °F
Feels Like 66.2 °F
N
0.0
Wind Variable Wind from NE
Gusts 0.0 mph

Today
High -- | Low -- °F
--% Chance of Precip.
Yesterday
High -- | Low -- °F
Precip. -- in
Pressure 30.24 in
Visibility 10.0 miles
Clouds Scattered Clouds 600 ft
Overcast 11000 ft
Dew Point 64 °F
Humidity 93%
Rainfall 0.04 in
Snow Depth Not available.
7:20 AM 8:15 PM
Waning Crescent, 1% visible
SPECI KAMA 311407Z 00000KT 10SM SCT006 OVC110 19/17 A3024 RMK AO2 T01890167
Pressure 30.24 in
Visibility 10.0 miles
Clouds Scattered Clouds 600 ft
Overcast 11000 ft
Dew Point 64 °F
Humidity 93%
Rainfall 0.04 in
Snow Depth Not available.
7:20 AM 8:15 PM
Waning Crescent, 1% visible
SPECI KAMA 311407Z 00000KT 10SM SCT006 OVC110 19/17 A3024 RMK AO2 T01890167

10-Day Weather Forecast

Almanac

Astronomy

Aug. 31, 2016 Rise Set
Actual Time
Civil Twilight
Nautical Twilight
Astronomical Twilight
Moon
Length of Visible Light
Length of Day
Tomorrow will be .
, % of the Moon is Illuminated

Today's Extremes

State Highs State Lows

Community

WunderPhotos

Upload Photos

1,936,093 photos uploaded!

WunderBlog® & News

Nearby

Air Quality

  Air Quality AQ Index Pollutant
Not available.

Snow Depth

Station Depth Elevation

Earthquake Activity

City Distance Mag. Time & Date
Minimum magnitude displayed is 2.5.

Coastal Water Temperatures

Place Temperature

Stations

Nearby Weather Stations

Station Location Temp. Windchill Dew Point Humidity Wind Precip. Elev Updated Type
                   

Watches & Warnings

There are currently no watches in effect.